sensor_id;sensor_type;location;lat;lon;timestamp;P1;durP1;ratioP1;P2;durP2;ratioP2
33074;SDS011;19433;51.292;6.868;2022-10-19T02:44:05;10.97;;;4.33;;
33074;SDS011;19433;51.292;6.868;2022-10-19T02:47:08;9.87;;;4.00;;
33074;SDS011;19433;51.292;6.868;2022-10-19T04:33:04;9.93;;;8.80;;
33074;SDS011;19433;51.292;6.868;2022-10-19T04:45:50;11.53;;;8.50;;
33074;SDS011;19433;51.292;6.868;2022-10-19T05:12:29;8.47;;;6.87;;
33074;SDS011;19433;51.292;6.868;2022-10-19T05:30:51;11.13;;;6.30;;
33074;SDS011;19433;51.292;6.868;2022-10-19T05:33:16;8.27;;;6.10;;
33074;SDS011;19433;51.292;6.868;2022-10-19T07:42:17;14.03;;;9.70;;
33074;SDS011;19433;51.292;6.868;2022-10-19T07:44:42;14.93;;;7.50;;
33074;SDS011;19433;51.292;6.868;2022-10-19T07:47:08;10.83;;;7.20;;
33074;SDS011;19433;51.292;6.868;2022-10-19T07:49:33;9.90;;;6.13;;
33074;SDS011;19433;51.292;6.868;2022-10-19T07:51:58;10.57;;;6.10;;
33074;SDS011;19433;51.292;6.868;2022-10-19T07:54:24;6.67;;;5.10;;
33074;SDS011;19433;51.292;6.868;2022-10-19T07:56:51;7.03;;;5.50;;
33074;SDS011;19433;51.292;6.868;2022-10-19T07:59:16;7.57;;;4.70;;
33074;SDS011;19433;51.292;6.868;2022-10-19T08:01:41;9.20;;;4.90;;
33074;SDS011;19433;51.292;6.868;2022-10-19T08:04:09;7.57;;;4.50;;
33074;SDS011;19433;51.292;6.868;2022-10-19T08:06:34;5.13;;;4.40;;
33074;SDS011;19433;51.292;6.868;2022-10-19T08:09:01;6.00;;;4.67;;
33074;SDS011;19433;51.292;6.868;2022-10-19T08:11:28;5.20;;;3.90;;
33074;SDS011;19433;51.292;6.868;2022-10-19T08:13:56;5.27;;;3.47;;
33074;SDS011;19433;51.292;6.868;2022-10-19T08:16:28;7.87;;;4.10;;
33074;SDS011;19433;51.292;6.868;2022-10-19T08:18:58;4.60;;;3.03;;
33074;SDS011;19433;51.292;6.868;2022-10-19T08:21:25;5.80;;;3.60;;
33074;SDS011;19433;51.292;6.868;2022-10-19T08:23:51;5.00;;;3.20;;
33074;SDS011;19433;51.292;6.868;2022-10-19T08:26:17;4.60;;;2.80;;
33074;SDS011;19433;51.292;6.868;2022-10-19T08:28:43;4.87;;;2.40;;
33074;SDS011;19433;51.292;6.868;2022-10-19T08:31:15;4.60;;;2.80;;
33074;SDS011;19433;51.292;6.868;2022-10-19T08:33:43;6.90;;;2.73;;
33074;SDS011;19433;51.292;6.868;2022-10-19T08:36:09;6.33;;;2.50;;
33074;SDS011;19433;51.292;6.868;2022-10-19T08:38:36;5.23;;;2.93;;
33074;SDS011;19433;51.292;6.868;2022-10-19T08:41:17;7.00;;;3.50;;
33074;SDS011;19433;51.292;6.868;2022-10-19T08:49:43;4.23;;;2.80;;
33074;SDS011;19433;51.292;6.868;2022-10-19T08:52:17;6.13;;;3.40;;
33074;SDS011;19433;51.292;6.868;2022-10-19T08:54:49;6.20;;;2.70;;
33074;SDS011;19433;51.292;6.868;2022-10-19T08:57:21;5.57;;;2.30;;
33074;SDS011;19433;51.292;6.868;2022-10-19T09:03:03;5.13;;;2.20;;
33074;SDS011;19433;51.292;6.868;2022-10-19T09:05:40;7.63;;;2.17;;
33074;SDS011;19433;51.292;6.868;2022-10-19T09:08:11;4.43;;;1.90;;
33074;SDS011;19433;51.292;6.868;2022-10-19T09:10:41;4.73;;;2.23;;
33074;SDS011;19433;51.292;6.868;2022-10-19T09:16:01;4.20;;;1.90;;
33074;SDS011;19433;51.292;6.868;2022-10-19T09:18:29;5.77;;;1.70;;
33074;SDS011;19433;51.292;6.868;2022-10-19T09:20:57;4.43;;;2.20;;
33074;SDS011;19433;51.292;6.868;2022-10-19T09:26:13;4.53;;;2.30;;
33074;SDS011;19433;51.292;6.868;2022-10-19T09:31:39;7.57;;;2.07;;
33074;SDS011;19433;51.292;6.868;2022-10-19T09:36:51;2.50;;;1.33;;
33074;SDS011;19433;51.292;6.868;2022-10-19T09:39:18;2.90;;;1.50;;
33074;SDS011;19433;51.292;6.868;2022-10-19T09:44:20;3.00;;;1.20;;
33074;SDS011;19433;51.292;6.868;2022-10-19T09:46:54;6.83;;;2.03;;
33074;SDS011;19433;51.292;6.868;2022-10-19T09:49:38;7.13;;;2.00;;
33074;SDS011;19433;51.292;6.868;2022-10-19T09:55:17;2.00;;;1.40;;
33074;SDS011;19433;51.292;6.868;2022-10-19T09:57:48;2.87;;;1.80;;
33074;SDS011;19433;51.292;6.868;2022-10-19T10:00:21;2.57;;;1.73;;
33074;SDS011;19433;51.292;6.868;2022-10-19T10:02:49;2.27;;;1.23;;
33074;SDS011;19433;51.292;6.868;2022-10-19T10:05:19;5.90;;;1.70;;
33074;SDS011;19433;51.292;6.868;2022-10-19T10:07:53;2.90;;;1.87;;
33074;SDS011;19433;51.292;6.868;2022-10-19T10:10:21;1.90;;;1.40;;
33074;SDS011;19433;51.292;6.868;2022-10-19T10:12:48;3.30;;;1.63;;
33074;SDS011;19433;51.292;6.868;2022-10-19T10:15:16;2.93;;;1.57;;
33074;SDS011;19433;51.292;6.868;2022-10-19T10:17:46;6.13;;;2.20;;
33074;SDS011;19433;51.292;6.868;2022-10-19T10:20:25;5.23;;;1.73;;
33074;SDS011;19433;51.292;6.868;2022-10-19T10:22:55;3.57;;;1.50;;
33074;SDS011;19433;51.292;6.868;2022-10-19T10:25:27;5.37;;;2.03;;
33074;SDS011;19433;51.292;6.868;2022-10-19T10:27:56;4.13;;;1.80;;
33074;SDS011;19433;51.292;6.868;2022-10-19T10:30:24;4.40;;;1.73;;
33074;SDS011;19433;51.292;6.868;2022-10-19T10:32:51;3.33;;;1.70;;
33074;SDS011;19433;51.292;6.868;2022-10-19T10:35:30;3.80;;;1.70;;
33074;SDS011;19433;51.292;6.868;2022-10-19T10:38:05;5.03;;;2.10;;
33074;SDS011;19433;51.292;6.868;2022-10-19T10:40:33;3.77;;;1.70;;
33074;SDS011;19433;51.292;6.868;2022-10-19T10:43:07;5.17;;;1.70;;
33074;SDS011;19433;51.292;6.868;2022-10-19T10:45:38;1.93;;;1.60;;
33074;SDS011;19433;51.292;6.868;2022-10-19T10:48:12;4.10;;;3.67;;
33074;SDS011;19433;51.292;6.868;2022-10-19T10:50:44;4.83;;;1.90;;
33074;SDS011;19433;51.292;6.868;2022-10-19T10:56:18;3.97;;;1.90;;
33074;SDS011;19433;51.292;6.868;2022-10-19T10:58:53;4.80;;;2.37;;
33074;SDS011;19433;51.292;6.868;2022-10-19T11:01:27;4.47;;;2.07;;
33074;SDS011;19433;51.292;6.868;2022-10-19T11:04:18;3.23;;;1.50;;
33074;SDS011;19433;51.292;6.868;2022-10-19T11:06:57;6.63;;;2.03;;
33074;SDS011;19433;51.292;6.868;2022-10-19T11:09:35;3.67;;;1.93;;
33074;SDS011;19433;51.292;6.868;2022-10-19T11:12:08;2.67;;;1.93;;
33074;SDS011;19433;51.292;6.868;2022-10-19T11:14:49;4.50;;;1.90;;
33074;SDS011;19433;51.292;6.868;2022-10-19T11:17:25;3.63;;;1.90;;
33074;SDS011;19433;51.292;6.868;2022-10-19T11:19:54;3.37;;;1.83;;
33074;SDS011;19433;51.292;6.868;2022-10-19T11:22:26;3.83;;;1.80;;
33074;SDS011;19433;51.292;6.868;2022-10-19T11:25:16;3.77;;;2.40;;
33074;SDS011;19433;51.292;6.868;2022-10-19T11:27:53;4.10;;;2.00;;
33074;SDS011;19433;51.292;6.868;2022-10-19T11:30:28;5.33;;;2.20;;
33074;SDS011;19433;51.292;6.868;2022-10-19T11:33:05;4.40;;;2.30;;
33074;SDS011;19433;51.292;6.868;2022-10-19T11:48:50;5.33;;;2.00;;
33074;SDS011;19433;51.292;6.868;2022-10-19T12:02:56;4.23;;;2.87;;
33074;SDS011;19433;51.292;6.868;2022-10-19T12:13:12;4.30;;;2.03;;
33074;SDS011;19433;51.292;6.868;2022-10-19T12:15:42;3.30;;;2.10;;
33074;SDS011;19433;51.292;6.868;2022-10-19T12:18:25;6.57;;;2.53;;
33074;SDS011;19433;51.292;6.868;2022-10-19T12:21:09;2.00;;;1.80;;
33074;SDS011;19433;51.292;6.868;2022-10-19T12:23:38;4.77;;;1.90;;
33074;SDS011;19433;51.292;6.868;2022-10-19T12:26:08;3.23;;;1.90;;
33074;SDS011;19433;51.292;6.868;2022-10-19T12:28:39;4.87;;;2.03;;
33074;SDS011;19433;51.292;6.868;2022-10-19T12:31:10;4.57;;;1.83;;
33074;SDS011;19433;51.292;6.868;2022-10-19T12:36:45;2.57;;;1.97;;
33074;SDS011;19433;51.292;6.868;2022-10-19T12:41:53;4.40;;;2.20;;
33074;SDS011;19433;51.292;6.868;2022-10-19T12:47:10;3.90;;;2.03;;
33074;SDS011;19433;51.292;6.868;2022-10-19T12:49:42;6.70;;;1.90;;
33074;SDS011;19433;51.292;6.868;2022-10-19T12:52:08;3.97;;;1.70;;
33074;SDS011;19433;51.292;6.868;2022-10-19T12:54:34;3.63;;;2.40;;
33074;SDS011;19433;51.292;6.868;2022-10-19T12:57:03;4.67;;;2.30;;
33074;SDS011;19433;51.292;6.868;2022-10-19T12:59:45;4.47;;;2.20;;
33074;SDS011;19433;51.292;6.868;2022-10-19T13:02:31;6.57;;;2.27;;
33074;SDS011;19433;51.292;6.868;2022-10-19T13:04:59;2.90;;;2.07;;
33074;SDS011;19433;51.292;6.868;2022-10-19T13:07:25;4.43;;;1.67;;
33074;SDS011;19433;51.292;6.868;2022-10-19T13:10:00;3.30;;;1.70;;
33074;SDS011;19433;51.292;6.868;2022-10-19T13:12:39;2.63;;;1.83;;
33074;SDS011;19433;51.292;6.868;2022-10-19T13:15:47;3.90;;;2.03;;
33074;SDS011;19433;51.292;6.868;2022-10-19T13:17:59;2.77;;;1.60;;
33074;SDS011;19433;51.292;6.868;2022-10-19T13:25:44;3.13;;;1.87;;
33074;SDS011;19433;51.292;6.868;2022-10-19T13:35:47;5.27;;;1.80;;
33074;SDS011;19433;51.292;6.868;2022-10-19T13:51:21;5.70;;;2.10;;
33074;SDS011;19433;51.292;6.868;2022-10-19T13:54:00;3.63;;;1.90;;
33074;SDS011;19433;51.292;6.868;2022-10-19T13:56:54;5.47;;;1.60;;
33074;SDS011;19433;51.292;6.868;2022-10-19T13:59:50;3.83;;;1.70;;
33074;SDS011;19433;51.292;6.868;2022-10-19T14:02:41;4.30;;;1.80;;
33074;SDS011;19433;51.292;6.868;2022-10-19T14:10:56;4.00;;;3.10;;
33074;SDS011;19433;51.292;6.868;2022-10-19T14:13:23;5.40;;;2.07;;
33074;SDS011;19433;51.292;6.868;2022-10-19T14:15:50;3.10;;;2.13;;
33074;SDS011;19433;51.292;6.868;2022-10-19T14:18:21;3.30;;;1.80;;
33074;SDS011;19433;51.292;6.868;2022-10-19T14:20:54;3.30;;;2.07;;
33074;SDS011;19433;51.292;6.868;2022-10-19T14:23:25;3.10;;;1.83;;
33074;SDS011;19433;51.292;6.868;2022-10-19T14:28:26;2.93;;;1.53;;
33074;SDS011;19433;51.292;6.868;2022-10-19T14:33:28;3.13;;;1.60;;
33074;SDS011;19433;51.292;6.868;2022-10-19T14:35:59;6.23;;;2.57;;
33074;SDS011;19433;51.292;6.868;2022-10-19T14:38:30;5.90;;;1.90;;
33074;SDS011;19433;51.292;6.868;2022-10-19T14:41:00;2.23;;;1.50;;
33074;SDS011;19433;51.292;6.868;2022-10-19T14:43:27;4.43;;;1.83;;
33074;SDS011;19433;51.292;6.868;2022-10-19T14:48:32;5.57;;;1.63;;
33074;SDS011;19433;51.292;6.868;2022-10-19T14:51:03;4.63;;;1.70;;
33074;SDS011;19433;51.292;6.868;2022-10-19T14:53:45;5.13;;;2.13;;
33074;SDS011;19433;51.292;6.868;2022-10-19T14:56:17;3.43;;;1.97;;
33074;SDS011;19433;51.292;6.868;2022-10-19T14:58:52;3.80;;;1.73;;
33074;SDS011;19433;51.292;6.868;2022-10-19T15:01:21;5.40;;;2.17;;
33074;SDS011;19433;51.292;6.868;2022-10-19T15:03:46;3.87;;;2.00;;
33074;SDS011;19433;51.292;6.868;2022-10-19T15:06:18;3.17;;;2.00;;
33074;SDS011;19433;51.292;6.868;2022-10-19T15:08:57;4.63;;;1.93;;
33074;SDS011;19433;51.292;6.868;2022-10-19T15:11:26;2.83;;;1.77;;
33074;SDS011;19433;51.292;6.868;2022-10-19T15:13:55;4.77;;;2.37;;
33074;SDS011;19433;51.292;6.868;2022-10-19T15:16:28;4.33;;;1.87;;
33074;SDS011;19433;51.292;6.868;2022-10-19T15:18:55;2.93;;;2.07;;
33074;SDS011;19433;51.292;6.868;2022-10-19T15:21:25;3.70;;;2.47;;
33074;SDS011;19433;51.292;6.868;2022-10-19T15:23:51;4.43;;;1.97;;
33074;SDS011;19433;51.292;6.868;2022-10-19T15:26:18;1.83;;;1.47;;
33074;SDS011;19433;51.292;6.868;2022-10-19T15:28:46;3.83;;;2.40;;
33074;SDS011;19433;51.292;6.868;2022-10-19T15:36:23;7.97;;;1.93;;
33074;SDS011;19433;51.292;6.868;2022-10-19T15:39:03;3.37;;;2.03;;
33074;SDS011;19433;51.292;6.868;2022-10-19T15:41:32;1.93;;;1.70;;
33074;SDS011;19433;51.292;6.868;2022-10-19T15:44:00;4.03;;;1.90;;
33074;SDS011;19433;51.292;6.868;2022-10-19T15:46:32;2.70;;;2.07;;
33074;SDS011;19433;51.292;6.868;2022-10-19T15:49:04;5.47;;;2.13;;
33074;SDS011;19433;51.292;6.868;2022-10-19T15:51:50;4.10;;;1.80;;
33074;SDS011;19433;51.292;6.868;2022-10-19T15:54:16;5.77;;;2.10;;
33074;SDS011;19433;51.292;6.868;2022-10-19T15:56:46;5.90;;;2.97;;
33074;SDS011;19433;51.292;6.868;2022-10-19T15:59:17;7.30;;;1.97;;
33074;SDS011;19433;51.292;6.868;2022-10-19T16:01:44;4.40;;;2.13;;
33074;SDS011;19433;51.292;6.868;2022-10-19T16:04:11;7.70;;;2.63;;
33074;SDS011;19433;51.292;6.868;2022-10-19T16:06:37;3.43;;;1.97;;
33074;SDS011;19433;51.292;6.868;2022-10-19T16:09:05;4.23;;;2.57;;
33074;SDS011;19433;51.292;6.868;2022-10-19T16:11:31;1.90;;;1.70;;
33074;SDS011;19433;51.292;6.868;2022-10-19T16:13:57;3.57;;;1.90;;
33074;SDS011;19433;51.292;6.868;2022-10-19T16:16:23;2.60;;;1.47;;
33074;SDS011;19433;51.292;6.868;2022-10-19T16:18:50;9.00;;;2.00;;
33074;SDS011;19433;51.292;6.868;2022-10-19T16:21:16;4.93;;;1.80;;
33074;SDS011;19433;51.292;6.868;2022-10-19T16:23:44;3.03;;;2.40;;
33074;SDS011;19433;51.292;6.868;2022-10-19T16:26:10;3.60;;;1.90;;
33074;SDS011;19433;51.292;6.868;2022-10-19T16:28:37;4.07;;;1.90;;
33074;SDS011;19433;51.292;6.868;2022-10-19T16:31:03;4.43;;;2.60;;
33074;SDS011;19433;51.292;6.868;2022-10-19T16:33:28;2.80;;;2.60;;
33074;SDS011;19433;51.292;6.868;2022-10-19T16:35:53;4.17;;;1.90;;
33074;SDS011;19433;51.292;6.868;2022-10-19T16:38:19;3.93;;;2.30;;
33074;SDS011;19433;51.292;6.868;2022-10-19T16:40:45;3.80;;;2.57;;
33074;SDS011;19433;51.292;6.868;2022-10-19T16:43:10;2.97;;;2.67;;
33074;SDS011;19433;51.292;6.868;2022-10-19T16:48:57;3.13;;;2.27;;
33074;SDS011;19433;51.292;6.868;2022-10-19T16:51:24;2.60;;;2.40;;
33074;SDS011;19433;51.292;6.868;2022-10-19T16:53:53;3.27;;;1.97;;
33074;SDS011;19433;51.292;6.868;2022-10-19T16:56:21;3.97;;;2.17;;
33074;SDS011;19433;51.292;6.868;2022-10-19T16:58:47;4.80;;;2.20;;
33074;SDS011;19433;51.292;6.868;2022-10-19T17:01:14;3.03;;;2.27;;
33074;SDS011;19433;51.292;6.868;2022-10-19T17:03:42;6.63;;;2.43;;
33074;SDS011;19433;51.292;6.868;2022-10-19T17:06:08;4.27;;;2.43;;
33074;SDS011;19433;51.292;6.868;2022-10-19T17:08:34;5.73;;;2.20;;
33074;SDS011;19433;51.292;6.868;2022-10-19T17:11:14;3.47;;;2.70;;
33074;SDS011;19433;51.292;6.868;2022-10-19T17:13:48;7.60;;;3.23;;
33074;SDS011;19433;51.292;6.868;2022-10-19T17:16:14;2.27;;;2.07;;
33074;SDS011;19433;51.292;6.868;2022-10-19T17:18:42;7.80;;;2.60;;
33074;SDS011;19433;51.292;6.868;2022-10-19T17:21:12;6.27;;;2.60;;
33074;SDS011;19433;51.292;6.868;2022-10-19T17:24:04;3.07;;;2.77;;
33074;SDS011;19433;51.292;6.868;2022-10-19T17:26:36;3.67;;;2.57;;
33074;SDS011;19433;51.292;6.868;2022-10-19T17:29:04;3.80;;;2.90;;
33074;SDS011;19433;51.292;6.868;2022-10-19T17:41:36;5.20;;;2.57;;
33074;SDS011;19433;51.292;6.868;2022-10-19T17:47:28;3.43;;;2.60;;
33074;SDS011;19433;51.292;6.868;2022-10-19T17:53:16;5.53;;;3.40;;
33074;SDS011;19433;51.292;6.868;2022-10-19T18:06:18;6.97;;;3.20;;
33074;SDS011;19433;51.292;6.868;2022-10-19T18:12:56;6.73;;;3.23;;
33074;SDS011;19433;51.292;6.868;2022-10-19T18:15:21;2.80;;;2.60;;
33074;SDS011;19433;51.292;6.868;2022-10-19T18:17:46;3.77;;;3.03;;
33074;SDS011;19433;51.292;6.868;2022-10-19T18:20:12;4.50;;;3.47;;
33074;SDS011;19433;51.292;6.868;2022-10-19T18:22:37;3.53;;;2.53;;
33074;SDS011;19433;51.292;6.868;2022-10-19T18:31:36;4.13;;;3.07;;
33074;SDS011;19433;51.292;6.868;2022-10-19T18:34:03;5.27;;;3.13;;
33074;SDS011;19433;51.292;6.868;2022-10-19T18:36:32;3.00;;;2.73;;
33074;SDS011;19433;51.292;6.868;2022-10-19T18:39:19;3.30;;;2.77;;
33074;SDS011;19433;51.292;6.868;2022-10-19T18:41:48;3.50;;;3.20;;
33074;SDS011;19433;51.292;6.868;2022-10-19T18:44:15;6.13;;;2.80;;
33074;SDS011;19433;51.292;6.868;2022-10-19T18:46:41;4.63;;;2.73;;
33074;SDS011;19433;51.292;6.868;2022-10-19T18:49:09;8.90;;;3.20;;
33074;SDS011;19433;51.292;6.868;2022-10-19T18:51:41;6.93;;;2.97;;
33074;SDS011;19433;51.292;6.868;2022-10-19T18:54:07;3.50;;;2.87;;
33074;SDS011;19433;51.292;6.868;2022-10-19T18:56:36;6.30;;;3.30;;
33074;SDS011;19433;51.292;6.868;2022-10-19T19:39:38;6.53;;;4.20;;
33074;SDS011;19433;51.292;6.868;2022-10-19T21:09:21;5.30;;;3.90;;
33074;SDS011;19433;51.292;6.868;2022-10-19T21:26:10;5.70;;;3.43;;
33074;SDS011;19433;51.292;6.868;2022-10-19T21:36:19;5.23;;;3.73;;
33074;SDS011;19433;51.292;6.868;2022-10-19T22:13:32;4.97;;;4.50;;
